createdAt,value
2023-03-17T00:01:44.951Z,99074.06
2023-03-17T00:04:12.560Z,99081.91
2023-03-17T00:06:41.385Z,99088.81
2023-03-17T00:09:17.058Z,99093.37
2023-03-17T00:11:45.314Z,99086.23
2023-03-17T00:14:12.892Z,99087.14
2023-03-17T00:16:58.686Z,99089.60
2023-03-17T00:19:31.432Z,99097.22
2023-03-17T00:22:00.208Z,99098.95
2023-03-17T00:24:28.435Z,99097.05
2023-03-17T00:26:56.164Z,99094.64
2023-03-17T00:29:24.005Z,99100.77
2023-03-17T00:31:51.994Z,99101.98
2023-03-17T00:34:19.682Z,99101.29
2023-03-17T00:36:48.468Z,99101.66
2023-03-17T00:41:43.641Z,99105.30
2023-03-17T00:44:12.008Z,99106.20
2023-03-17T00:46:41.369Z,99101.83
2023-03-17T00:51:44.822Z,99090.02
2023-03-17T00:54:13.121Z,99083.00
2023-03-17T00:56:41.663Z,99080.05
2023-03-17T00:59:32.652Z,99080.45
2023-03-17T01:02:00.342Z,99074.86
2023-03-17T01:04:28.778Z,99073.55
2023-03-17T01:06:56.994Z,99072.22
2023-03-17T01:09:26.325Z,99070.86
2023-03-17T01:11:55.551Z,99071.17
2023-03-17T01:14:24.716Z,99072.54
2023-03-17T01:16:55.612Z,99072.89
2023-03-17T01:19:23.681Z,99069.33
2023-03-17T01:21:52.397Z,99060.27
2023-03-17T01:24:20.043Z,99052.75
2023-03-17T01:26:47.666Z,99053.35
2023-03-17T01:29:16.605Z,99056.70
2023-03-17T01:31:45.393Z,99054.44
2023-03-17T01:34:13.044Z,99048.02
2023-03-17T01:36:41.383Z,99045.48
2023-03-17T01:39:08.960Z,99052.34
2023-03-17T01:41:40.224Z,99050.03
2023-03-17T01:44:17.499Z,99045.84
2023-03-17T01:46:47.492Z,99042.91
2023-03-17T01:49:19.667Z,99039.55
2023-03-17T01:52:00.322Z,99033.75
2023-03-17T01:55:01.741Z,99025.97
2023-03-17T01:57:38.135Z,99026.48
2023-03-17T02:00:10.919Z,99026.30
2023-03-17T02:02:43.804Z,99025.97
2023-03-17T02:05:13.321Z,99024.81
2023-03-17T02:07:41.613Z,99023.23
2023-03-17T02:10:09.942Z,99022.88
2023-03-17T02:12:37.540Z,99017.13
2023-03-17T02:15:05.944Z,99011.58
2023-03-17T02:17:33.651Z,99005.98
2023-03-17T02:20:17.169Z,98999.16
2023-03-17T02:22:46.714Z,98995.77
2023-03-17T02:25:14.542Z,98999.63
2023-03-17T02:27:44.189Z,98995.23
2023-03-17T02:30:14.196Z,98994.87
2023-03-17T02:32:42.120Z,98994.90
2023-03-17T02:35:10.222Z,98991.70
2023-03-17T02:37:38.037Z,98986.38
2023-03-17T02:40:07.147Z,98994.75
2023-03-17T02:42:35.761Z,98995.04
2023-03-17T02:45:03.802Z,98993.89
2023-03-17T02:47:31.671Z,98981.22
2023-03-17T02:49:59.255Z,98979.05
2023-03-17T02:52:27.091Z,98978.70
2023-03-17T02:54:54.684Z,98980.57
2023-03-17T02:57:22.276Z,98983.20
2023-03-17T02:59:50.200Z,98986.11
2023-03-17T03:02:17.936Z,98994.94
2023-03-17T03:04:46.349Z,98994.35
2023-03-17T03:07:13.946Z,98997.83
2023-03-17T03:09:42.150Z,99004.94
2023-03-17T03:12:11.332Z,98999.60
2023-03-17T03:14:38.996Z,98995.16
2023-03-17T03:17:06.720Z,98998.86
2023-03-17T03:19:34.668Z,99001.77
2023-03-17T03:22:02.233Z,99006.67
2023-03-17T03:24:29.820Z,98992.77
2023-03-17T03:26:57.410Z,98991.12
2023-03-17T03:29:25.298Z,98999.79
2023-03-17T03:31:52.983Z,99007.73
2023-03-17T03:34:20.618Z,99006.28
2023-03-17T03:36:48.214Z,99003.14
2023-03-17T03:39:16.040Z,99015.84
2023-03-17T03:41:43.668Z,99024.66
2023-03-17T03:44:11.340Z,99017.63
2023-03-17T03:46:38.986Z,99018.04
2023-03-17T03:49:06.650Z,99012.88
2023-03-17T03:51:34.228Z,99004.65
2023-03-17T03:54:01.821Z,99004.59
2023-03-17T03:56:29.471Z,99005.41
2023-03-17T03:58:57.218Z,98996.33
2023-03-17T04:01:24.910Z,98984.86
2023-03-17T04:03:52.535Z,98985.86
2023-03-17T04:06:20.109Z,98991.80
2023-03-17T04:08:47.668Z,98989.35
2023-03-17T04:11:15.361Z,98987.84
2023-03-17T04:13:43.061Z,98988.42
2023-03-17T04:16:11.116Z,98986.20
2023-03-17T04:18:39.044Z,98984.52
2023-03-17T04:21:08.340Z,98994.93
2023-03-17T04:23:36.443Z,98998.80
2023-03-17T04:26:04.530Z,98994.99
2023-03-17T04:28:32.135Z,98987.30
2023-03-17T04:30:59.843Z,98983.29
2023-03-17T04:33:27.681Z,98978.33
2023-03-17T04:35:55.352Z,98982.21
2023-03-17T04:38:23.059Z,98987.04
2023-03-17T04:40:51.076Z,98999.46
2023-03-17T04:43:18.694Z,99008.78
2023-03-17T04:45:46.555Z,99009.04
2023-03-17T04:48:14.154Z,99009.30
2023-03-17T04:50:42.950Z,99011.80
2023-03-17T04:53:10.560Z,99023.60
2023-03-17T04:55:38.127Z,99021.25
2023-03-17T04:58:05.719Z,99023.38
2023-03-17T05:00:38.746Z,99031.02
2023-03-17T05:03:20.067Z,99026.89
2023-03-17T05:05:53.924Z,99020.35
2023-03-17T05:08:21.766Z,99010.59
2023-03-17T05:10:49.418Z,99006.90
2023-03-17T05:13:17.227Z,99003.66
2023-03-17T05:15:47.716Z,98994.36
2023-03-17T05:18:16.440Z,98987.42
2023-03-17T05:20:44.479Z,98993.36
2023-03-17T05:23:12.338Z,98999.23
2023-03-17T05:25:41.622Z,99007.80
2023-03-17T05:28:10.201Z,99008.27
2023-03-17T05:30:37.950Z,99006.63
2023-03-17T05:33:06.091Z,99004.80
2023-03-17T05:35:33.964Z,99007.61
2023-03-17T05:38:01.775Z,99008.29
2023-03-17T05:40:29.669Z,99005.44
2023-03-17T05:42:57.461Z,99004.17
2023-03-17T05:45:25.023Z,99005.21
2023-03-17T05:47:52.998Z,99004.95
2023-03-17T05:50:20.761Z,99007.63
2023-03-17T05:52:48.812Z,99009.77
2023-03-17T05:55:17.355Z,99012.83
2023-03-17T05:57:45.595Z,99013.93
2023-03-17T06:00:13.937Z,99012.01
2023-03-17T06:02:42.048Z,99010.05
2023-03-17T06:05:10.102Z,99011.48
2023-03-17T06:07:50.738Z,99013.53
2023-03-17T06:10:19.812Z,99009.66
2023-03-17T06:12:47.654Z,99001.83
2023-03-17T06:15:17.028Z,98991.41
2023-03-17T06:17:44.786Z,98990.89
2023-03-17T06:20:13.258Z,98992.88
2023-03-17T06:22:55.205Z,99000.86
2023-03-17T06:25:28.621Z,98999.80
2023-03-17T06:27:57.916Z,99003.06
2023-03-17T06:30:25.608Z,98998.85
2023-03-17T06:32:53.255Z,98998.16
2023-03-17T06:35:21.036Z,99005.95
2023-03-17T06:37:49.179Z,99002.07
2023-03-17T06:40:17.197Z,99008.67
2023-03-17T06:42:44.839Z,99014.23
2023-03-17T06:45:13.066Z,99015.36
2023-03-17T06:47:40.675Z,99017.84
2023-03-17T06:50:12.708Z,99018.48
2023-03-17T06:52:41.004Z,99021.52
2023-03-17T06:55:09.239Z,99022.85
2023-03-17T06:57:37.427Z,99025.05
2023-03-17T07:00:08.718Z,99030.98
2023-03-17T07:02:36.615Z,99033.73
2023-03-17T07:05:06.382Z,99026.71
2023-03-17T07:07:35.548Z,99028.48
2023-03-17T07:10:03.583Z,99035.06
2023-03-17T07:12:31.339Z,99030.40
2023-03-17T07:14:59.318Z,99029.17
2023-03-17T07:17:27.115Z,99032.42
2023-03-17T07:19:54.704Z,99028.62
2023-03-17T07:22:22.621Z,99021.58
2023-03-17T07:24:50.364Z,99025.02
2023-03-17T07:27:18.019Z,99026.14
2023-03-17T07:29:46.013Z,99031.30
2023-03-17T07:32:13.957Z,99036.27
2023-03-17T07:34:41.867Z,99035.23
2023-03-17T07:37:10.446Z,99034.80
2023-03-17T07:39:39.441Z,99035.20
2023-03-17T07:42:07.042Z,99036.65
2023-03-17T07:44:34.894Z,99034.86
2023-03-17T07:47:02.909Z,99031.92
2023-03-17T07:49:40.825Z,99027.80
2023-03-17T07:52:10.393Z,99028.16
2023-03-17T07:54:42.264Z,99027.63
2023-03-17T07:57:11.722Z,99027.80
2023-03-17T07:59:40.147Z,99022.81
2023-03-17T08:02:08.577Z,99024.55
2023-03-17T08:04:37.879Z,99022.04
2023-03-17T08:07:06.363Z,99014.84
2023-03-17T08:09:34.028Z,99016.79
2023-03-17T08:12:01.991Z,99012.48
2023-03-17T08:14:30.484Z,98998.28
2023-03-17T08:16:58.701Z,99000.20
2023-03-17T08:19:27.158Z,98996.81
2023-03-17T08:21:54.888Z,98994.64
2023-03-17T08:24:22.564Z,98992.54
2023-03-17T08:26:50.230Z,98984.73
2023-03-17T08:29:18.695Z,98979.04
2023-03-17T08:31:46.872Z,98979.40
2023-03-17T08:34:16.305Z,98977.33
2023-03-17T08:36:44.008Z,98971.61
2023-03-17T08:39:11.652Z,98962.09
2023-03-17T08:41:39.320Z,98961.11
2023-03-17T08:44:08.834Z,98955.95
2023-03-17T08:46:36.703Z,98959.68
2023-03-17T08:49:04.384Z,98954.23
2023-03-17T08:51:34.398Z,98954.11
2023-03-17T08:54:02.093Z,98953.88
2023-03-17T08:56:29.996Z,98952.39
2023-03-17T08:58:58.634Z,98945.83
2023-03-17T09:01:27.505Z,98941.40
2023-03-17T09:03:56.046Z,98940.44
2023-03-17T09:06:24.142Z,98944.84
2023-03-17T09:08:55.569Z,98949.00
2023-03-17T09:11:26.052Z,98952.49
2023-03-17T09:13:53.739Z,98954.14
2023-03-17T09:16:23.268Z,98957.88
2023-03-17T09:18:51.198Z,98956.31
2023-03-17T09:21:18.985Z,98950.32
2023-03-17T09:23:47.030Z,98947.23
2023-03-17T09:26:14.820Z,98943.13
2023-03-17T09:28:42.885Z,98935.14
2023-03-17T09:31:11.749Z,98926.96
2023-03-17T09:33:40.876Z,98933.45
2023-03-17T09:36:09.712Z,98935.24
2023-03-17T09:38:38.146Z,98931.90
2023-03-17T09:41:29.553Z,98936.88
2023-03-17T09:44:38.166Z,98933.35
2023-03-17T09:47:33.302Z,98933.29
2023-03-17T09:50:02.430Z,98931.24
2023-03-17T09:52:31.935Z,98934.45
2023-03-17T09:54:59.595Z,98926.62
2023-03-17T09:57:30.956Z,98919.84
2023-03-17T10:00:12.143Z,98917.82
2023-03-17T10:02:40.056Z,98916.99
2023-03-17T10:05:18.129Z,98909.91
2023-03-17T10:08:31.725Z,98911.17
2023-03-17T10:11:22.954Z,98906.77
2023-03-17T10:14:03.750Z,98907.37
2023-03-17T10:16:57.981Z,98905.59
2023-03-17T10:19:30.413Z,98902.77
2023-03-17T10:22:21.938Z,98898.98
2023-03-17T10:24:52.644Z,98897.20
2023-03-17T10:27:21.608Z,98903.33
2023-03-17T10:29:49.303Z,98895.14
2023-03-17T10:32:17.300Z,98898.98
2023-03-17T10:34:45.167Z,98903.05
2023-03-17T10:37:14.071Z,98894.73
2023-03-17T10:40:04.366Z,98896.04
2023-03-17T10:42:35.708Z,98902.14
2023-03-17T10:45:07.539Z,98896.40
2023-03-17T10:47:38.221Z,98885.73
2023-03-17T10:50:15.474Z,98880.73
2023-03-17T10:52:43.183Z,98876.33
2023-03-17T10:55:13.398Z,98868.58
2023-03-17T10:57:41.324Z,98860.45
2023-03-17T11:00:18.040Z,98852.67
2023-03-17T11:02:48.463Z,98845.73
2023-03-17T11:05:29.410Z,98837.55
2023-03-17T11:08:17.936Z,98829.16
2023-03-17T11:10:46.073Z,98828.16
2023-03-17T11:13:17.132Z,98823.67
2023-03-17T11:15:54.580Z,98816.89
2023-03-17T11:18:31.997Z,98824.11
2023-03-17T11:21:02.395Z,98829.62
2023-03-17T11:23:37.517Z,98829.69
2023-03-17T11:26:20.657Z,98829.91
2023-03-17T11:28:51.402Z,98822.42
2023-03-17T11:31:31.273Z,98821.77
2023-03-17T11:34:14.013Z,98820.06
2023-03-17T11:36:50.710Z,98825.38
2023-03-17T11:39:28.361Z,98833.63
2023-03-17T11:42:27.633Z,98825.92
2023-03-17T11:45:19.931Z,98822.59
2023-03-17T11:48:12.300Z,98815.17
2023-03-17T11:51:20.298Z,98809.92
2023-03-17T11:53:55.271Z,98811.17
2023-03-17T11:56:41.985Z,98812.58
2023-03-17T11:59:15.766Z,98804.50
2023-03-17T12:01:51.289Z,98802.05
2023-03-17T12:04:23.592Z,98797.67
2023-03-17T12:06:58.691Z,98795.27
2023-03-17T12:10:11.630Z,98795.32
2023-03-17T12:12:42.749Z,98794.31
2023-03-17T12:15:14.955Z,98788.42
2023-03-17T12:17:56.526Z,98782.85
2023-03-17T12:21:10.380Z,98779.75
2023-03-17T12:23:45.470Z,98769.77
2023-03-17T12:26:14.865Z,98756.96
2023-03-17T12:28:44.574Z,98750.81
2023-03-17T12:31:14.171Z,98750.79
2023-03-17T12:33:44.870Z,98751.29
2023-03-17T12:36:15.218Z,98741.77
2023-03-17T12:38:53.915Z,98745.95
2023-03-17T12:41:28.653Z,98745.52
2023-03-17T12:44:03.282Z,98739.63
2023-03-17T12:46:55.843Z,98738.02
2023-03-17T12:49:42.339Z,98732.73
2023-03-17T12:52:33.755Z,98721.64
2023-03-17T12:55:02.120Z,98720.69
2023-03-17T12:57:31.350Z,98719.23
2023-03-17T13:00:05.607Z,98718.82
2023-03-17T13:02:38.179Z,98717.35
2023-03-17T13:05:09.292Z,98718.04
2023-03-17T13:08:10.977Z,98719.83
2023-03-17T13:10:43.469Z,98718.41
2023-03-17T13:13:21.482Z,98710.13
2023-03-17T13:15:54.516Z,98711.15
2023-03-17T13:18:27.559Z,98711.27
2023-03-17T13:20:59.384Z,98708.63
2023-03-17T13:23:40.088Z,98710.88
2023-03-17T13:26:07.822Z,98710.10
2023-03-17T13:28:35.459Z,98705.09
2023-03-17T13:31:29.902Z,98700.67
2023-03-17T13:34:18.027Z,98693.82
2023-03-17T13:36:55.623Z,98695.13
2023-03-17T13:39:49.573Z,98694.67
2023-03-17T13:43:02.272Z,98686.09
2023-03-17T13:45:41.357Z,98682.17
2023-03-17T13:48:34.714Z,98677.50
2023-03-17T13:51:14.962Z,98669.99
2023-03-17T13:53:47.057Z,98670.08
2023-03-17T13:56:23.014Z,98666.95
2023-03-17T13:58:53.781Z,98662.87
2023-03-17T14:01:22.644Z,98653.50
2023-03-17T14:03:51.327Z,98643.93
2023-03-17T14:06:20.123Z,98644.09
2023-03-17T14:08:52.516Z,98636.52
2023-03-17T14:11:24.074Z,98639.75
2023-03-17T14:14:32.828Z,98636.76
2023-03-17T14:17:23.377Z,98631.12
2023-03-17T14:20:01.384Z,98633.40
2023-03-17T14:22:29.087Z,98627.82
2023-03-17T14:25:00.276Z,98626.53
2023-03-17T14:27:28.054Z,98620.16
2023-03-17T14:29:55.690Z,98622.91
2023-03-17T14:32:23.858Z,98620.09
2023-03-17T14:34:56.091Z,98618.62
2023-03-17T14:37:23.953Z,98617.66
2023-03-17T14:39:53.712Z,98611.52
2023-03-17T14:42:26.937Z,98604.46
2023-03-17T14:45:02.699Z,98600.89
2023-03-17T14:47:31.712Z,98591.77
2023-03-17T14:49:59.757Z,98584.61
2023-03-17T14:52:28.638Z,98585.44
2023-03-17T14:54:58.365Z,98590.34
2023-03-17T14:57:30.249Z,98587.46
2023-03-17T15:00:04.364Z,98590.50
2023-03-17T15:02:34.535Z,98587.40
2023-03-17T15:05:40.101Z,98589.36
2023-03-17T15:08:46.028Z,98591.14
2023-03-17T15:11:41.524Z,98581.33
2023-03-17T15:14:44.884Z,98580.44
2023-03-17T15:17:20.007Z,98575.20
2023-03-17T15:19:52.670Z,98572.75
2023-03-17T15:22:25.837Z,98571.16
2023-03-17T15:25:22.434Z,98573.83
2023-03-17T15:27:50.712Z,98573.50
2023-03-17T15:30:18.672Z,98571.76
2023-03-17T15:32:57.834Z,98569.30
2023-03-17T15:35:25.642Z,98576.67
2023-03-17T15:37:53.950Z,98572.12
2023-03-17T15:40:21.620Z,98574.94
2023-03-17T15:42:49.325Z,98574.74
2023-03-17T15:45:17.169Z,98571.42
2023-03-17T15:47:45.539Z,98569.30
2023-03-17T15:50:31.041Z,98574.92
2023-03-17T15:52:59.022Z,98572.11
2023-03-17T15:55:29.812Z,98573.86
2023-03-17T15:57:58.079Z,98574.38
2023-03-17T16:00:29.431Z,98574.02
2023-03-17T16:03:02.748Z,98574.16
2023-03-17T16:05:31.290Z,98575.88
2023-03-17T16:07:58.938Z,98574.45
2023-03-17T16:10:28.183Z,98571.44
2023-03-17T16:12:56.056Z,98573.68
2023-03-17T16:15:25.293Z,98573.98
2023-03-17T16:17:55.239Z,98573.90
2023-03-17T16:20:43.383Z,98568.91
2023-03-17T16:23:14.751Z,98560.23
2023-03-17T16:25:42.893Z,98560.67
2023-03-17T16:28:24.900Z,98561.45
2023-03-17T16:30:53.287Z,98563.42
2023-03-17T16:33:32.621Z,98562.80
2023-03-17T16:36:00.522Z,98565.47
2023-03-17T16:38:29.840Z,98569.19
2023-03-17T16:41:24.642Z,98569.94
2023-03-17T16:43:55.279Z,98567.69
2023-03-17T16:46:23.398Z,98569.67
2023-03-17T16:48:51.273Z,98569.91
2023-03-17T16:51:19.142Z,98571.55
2023-03-17T16:53:46.809Z,98575.63
2023-03-17T16:56:19.478Z,98577.09
2023-03-17T16:58:47.224Z,98580.99
2023-03-17T17:01:25.780Z,98580.86
2023-03-17T17:03:53.698Z,98581.02
2023-03-17T17:06:22.406Z,98574.58
2023-03-17T17:08:50.751Z,98577.02
2023-03-17T17:11:18.828Z,98577.73
2023-03-17T17:13:47.300Z,98576.51
2023-03-17T17:16:20.880Z,98578.41
2023-03-17T17:18:49.016Z,98584.11
2023-03-17T17:21:16.707Z,98584.98
2023-03-17T17:23:44.305Z,98583.74
2023-03-17T17:26:12.099Z,98583.71
2023-03-17T17:28:40.383Z,98583.86
2023-03-17T17:31:08.380Z,98583.99
2023-03-17T17:33:36.620Z,98580.61
2023-03-17T17:36:04.925Z,98582.98
2023-03-17T17:38:32.686Z,98577.14
2023-03-17T17:41:03.239Z,98580.58
2023-03-17T17:43:31.671Z,98584.69
2023-03-17T17:45:59.328Z,98587.06
2023-03-17T17:48:27.480Z,98590.17
2023-03-17T17:50:56.056Z,98592.90
2023-03-17T17:53:23.733Z,98593.02
2023-03-17T17:55:51.850Z,98592.26
2023-03-17T17:58:22.238Z,98594.45
2023-03-17T18:00:50.774Z,98600.64
2023-03-17T18:03:22.374Z,98596.94
2023-03-17T18:05:51.340Z,98592.73
2023-03-17T18:08:18.970Z,98589.20
2023-03-17T18:10:46.692Z,98589.84
2023-03-17T18:13:14.369Z,98595.35
2023-03-17T18:15:42.221Z,98594.61
2023-03-17T18:18:10.006Z,98594.73
2023-03-17T18:20:38.229Z,98593.81
2023-03-17T18:23:06.233Z,98595.30
2023-03-17T18:25:33.872Z,98594.39
2023-03-17T18:28:01.557Z,98593.64
2023-03-17T18:30:30.920Z,98591.33
2023-03-17T18:33:02.986Z,98591.08
2023-03-17T18:35:31.570Z,98587.16
2023-03-17T18:37:59.269Z,98589.52
2023-03-17T18:40:27.165Z,98593.79
2023-03-17T18:42:55.309Z,98597.39
2023-03-17T18:45:23.123Z,98595.81
2023-03-17T18:47:51.178Z,98590.92
2023-03-17T18:50:19.733Z,98584.09
2023-03-17T18:52:47.505Z,98587.16
2023-03-17T18:55:15.312Z,98588.02
2023-03-17T18:57:44.711Z,98589.21
2023-03-17T19:00:14.166Z,98590.75
2023-03-17T19:02:41.800Z,98587.97
2023-03-17T19:05:09.931Z,98584.61
2023-03-17T19:07:40.200Z,98584.59
2023-03-17T19:10:09.856Z,98574.34
2023-03-17T19:12:37.722Z,98572.75
2023-03-17T19:15:06.478Z,98573.30
2023-03-17T19:17:34.537Z,98569.16
2023-03-17T19:20:02.613Z,98569.44
2023-03-17T19:22:30.201Z,98566.73
2023-03-17T19:24:57.923Z,98564.04
2023-03-17T19:27:25.842Z,98562.16
2023-03-17T19:29:53.421Z,98566.73
2023-03-17T19:32:21.011Z,98562.47
2023-03-17T19:34:48.664Z,98559.94
2023-03-17T19:37:16.289Z,98558.24
2023-03-17T19:39:47.053Z,98559.15
2023-03-17T19:42:14.860Z,98553.28
2023-03-17T19:44:42.510Z,98552.30
2023-03-17T19:47:10.138Z,98551.29
2023-03-17T19:49:37.846Z,98546.80
2023-03-17T19:52:06.419Z,98550.80
2023-03-17T19:54:34.464Z,98551.52
2023-03-17T19:57:02.157Z,98552.92
2023-03-17T19:59:29.792Z,98552.77
2023-03-17T20:01:58.723Z,98553.87
2023-03-17T20:04:26.547Z,98557.10
2023-03-17T20:06:55.773Z,98556.65
2023-03-17T20:09:27.179Z,98552.27
2023-03-17T20:11:56.115Z,98549.78
2023-03-17T20:14:24.027Z,98547.13
2023-03-17T20:16:51.995Z,98546.22
2023-03-17T20:19:19.883Z,98544.78
2023-03-17T20:21:47.450Z,98549.72
2023-03-17T20:24:15.109Z,98548.80
2023-03-17T20:26:43.358Z,98550.31
2023-03-17T20:29:14.740Z,98546.81
2023-03-17T20:31:42.741Z,98547.59
2023-03-17T20:34:10.642Z,98550.14
2023-03-17T20:36:42.218Z,98546.73
2023-03-17T20:39:13.857Z,98544.73
2023-03-17T20:41:41.715Z,98543.58
2023-03-17T20:44:09.314Z,98542.45
2023-03-17T20:46:37.171Z,98540.08
2023-03-17T20:49:06.034Z,98540.84
2023-03-17T20:51:34.087Z,98540.02
2023-03-17T20:54:02.414Z,98543.55
2023-03-17T20:56:30.847Z,98538.44
2023-03-17T20:58:58.758Z,98544.38
2023-03-17T21:01:26.919Z,98550.86
2023-03-17T21:03:54.693Z,98549.68
2023-03-17T21:06:25.855Z,98553.55
2023-03-17T21:08:54.123Z,98552.94
2023-03-17T21:11:23.197Z,98555.40
2023-03-17T21:13:50.893Z,98551.65
2023-03-17T21:16:28.626Z,98550.48
2023-03-17T21:18:56.308Z,98555.40
2023-03-17T21:21:25.138Z,98556.66
2023-03-17T21:23:53.080Z,98553.61
2023-03-17T21:26:20.953Z,98556.97
2023-03-17T21:28:48.688Z,98558.61
2023-03-17T21:31:17.227Z,98559.54
2023-03-17T21:33:45.341Z,98557.30
2023-03-17T21:36:13.115Z,98559.75
2023-03-17T21:38:41.889Z,98557.20
2023-03-17T21:41:30.374Z,98562.63
2023-03-17T21:43:58.263Z,98569.72
2023-03-17T21:46:25.947Z,98568.17
2023-03-17T21:48:54.182Z,98564.55
2023-03-17T21:51:21.947Z,98557.17
2023-03-17T21:53:49.519Z,98559.09
2023-03-17T21:56:17.333Z,98557.58
2023-03-17T21:58:45.857Z,98556.61
2023-03-17T22:01:14.333Z,98559.46
2023-03-17T22:03:42.497Z,98561.75
2023-03-17T22:06:13.296Z,98558.52
2023-03-17T22:08:41.189Z,98556.13
2023-03-17T22:11:10.311Z,98555.48
2023-03-17T22:13:37.967Z,98549.33
2023-03-17T22:16:06.189Z,98551.64
2023-03-17T22:18:33.923Z,98552.91
2023-03-17T22:21:01.757Z,98554.23
2023-03-17T22:23:29.375Z,98554.83
2023-03-17T22:25:57.326Z,98554.60
2023-03-17T22:28:25.063Z,98554.65
2023-03-17T22:30:52.719Z,98556.31
2023-03-17T22:33:20.301Z,98552.90
2023-03-17T22:35:48.023Z,98555.02
2023-03-17T22:38:15.979Z,98557.86
2023-03-17T22:40:43.607Z,98559.49
2023-03-17T22:43:11.965Z,98557.21
2023-03-17T22:45:39.648Z,98550.19
2023-03-17T22:48:07.232Z,98552.71
2023-03-17T22:50:34.865Z,98550.54
2023-03-17T22:53:02.502Z,98544.95
2023-03-17T22:55:30.078Z,98539.16
2023-03-17T22:57:57.730Z,98538.70
2023-03-17T23:00:25.786Z,98536.55
2023-03-17T23:02:53.401Z,98532.13
2023-03-17T23:05:21.083Z,98529.80
2023-03-17T23:07:50.598Z,98533.89
2023-03-17T23:10:22.960Z,98534.19
2023-03-17T23:12:51.078Z,98533.59
2023-03-17T23:15:19.754Z,98528.92
2023-03-17T23:17:47.545Z,98531.65
2023-03-17T23:20:15.439Z,98535.25
2023-03-17T23:22:43.186Z,98536.59
2023-03-17T23:25:12.592Z,98533.31
2023-03-17T23:27:40.889Z,98528.44
2023-03-17T23:30:11.287Z,98527.89
2023-03-17T23:32:40.688Z,98528.17
2023-03-17T23:35:09.867Z,98525.37
2023-03-17T23:37:37.511Z,98527.75
2023-03-17T23:40:06.484Z,98525.64
2023-03-17T23:42:34.068Z,98523.83
2023-03-17T23:45:02.496Z,98527.37
2023-03-17T23:47:30.270Z,98527.66
2023-03-17T23:49:57.939Z,98525.35
2023-03-17T23:52:25.734Z,98529.75
2023-03-17T23:54:53.451Z,98530.56
2023-03-17T23:57:21.054Z,98529.60
2023-03-17T23:59:48.635Z,98528.16
